This is the latest recevied weather packets stored in our database for station/object CW79215. If no packets are shown the sender has not sent any weather packets the latest 10 day(s).
| Time | Temp. | Humidity | Pressure | Rain* | Wind** | Luminosity | Snow |
|---|---|---|---|---|---|---|---|
| 1788423639 | 23.89° C | 42% | 1033.4 hPa | - | - | - | - |
| 1788422738 | 22.78° C | 45% | 1033.5 hPa | - | - | - | - |
| 1788421838 | 22.78° C | 44% | 1033.9 hPa | - | - | - | - |
| 1788420938 | 21.67° C | 45% | 1033.7 hPa | - | - | - | - |
| 1788420038 | 21.67° C | 48% | 1033.4 hPa | - | - | - | - |
| 1788419138 | 20.56° C | 50% | 1033.5 hPa | - | - | - | - |
| 1788418238 | 20° C | 52% | 1033.3 hPa | - | - | - | - |
| 1788417338 | 17.78° C | 57% | 1033.6 hPa | - | - | - | - |
| 1788416438 | 15.56° C | 64% | 1033.6 hPa | - | - | - | - |
| 1788415538 | 13.89° C | 72% | 1033.6 hPa | - | - | - | - |
| 1788414638 | 12.78° C | 74% | 1033.9 hPa | - | - | - | - |
| 1788413738 | 12.22° C | 76% | 1033.8 hPa | - | - | - | - |
| 1788412838 | 11.67° C | 79% | 1033.7 hPa | - | - | - | - |
| 1788411938 | 11.67° C | 79% | 1033.6 hPa | - | - | - | - |
| 1788411037 | 11.67° C | 79% | 1033.2 hPa | - | - | - | - |
| 1788410137 | 11.67° C | 79% | 1033.2 hPa | - | - | - | - |
| 1788409237 | 11.11° C | 81% | 1033.2 hPa | - | - | - | - |
| 1788408337 | 11.67° C | 78% | 1033.4 hPa | - | - | - | - |
| 1788407437 | 12.22° C | 78% | 1033.3 hPa | - | - | - | - |
| 1788406537 | 12.22° C | 78% | 1033.2 hPa | - | - | - | - |
| 1788405637 | 12.78° C | 77% | 1033.3 hPa | - | - | - | - |
| 1788404737 | 12.22° C | 79% | 1033.3 hPa | - | - | - | - |
| 1788403836 | 12.78° C | 79% | 1033.3 hPa | - | - | - | - |
| 1788402939 | 12.78° C | 77% | 1033.3 hPa | - | - | - | - |
| 1788402038 | 12.78° C | 78% | 1033.3 hPa | - | - | - | - |
* Rain since midnight (hover to see other rain measurements)
** Current wind speed in m/s (hover to see current wind gust speed)